Time;durP1;ratioP1;P1;durP2;ratioP2;P2;SDS_P1;SDS_P2;PMS_P1;PMS_P2;Temp;Humidity;BMP_temperature;BMP_pressure;BME280_temperature;BME280_humidity;BME280_pressure;Samples;Min_cycle;Max_cycle;Signal;HPM_P1;HPM_P2
2022/10/30 00:01:01;;;;;;;19.65;8.18;;;;;;;25.23;45.29;101252.16;5015037;28;20080;-57
2022/10/30 00:03:29;;;;;;;18.73;8.55;;;;;;;25.27;45.23;101253.94;5015379;28;20514;-58
2022/10/30 00:05:58;;;;;;;18.17;8.05;;;;;;;25.31;45.27;101255.72;5015316;28;20088;-58
2022/10/30 00:08:26;;;;;;;18.90;7.65;;;;;;;25.33;44.94;101256.63;5015481;28;20034;-58
2022/10/30 00:10:54;;;;;;;16.70;7.50;;;;;;;25.43;44.62;101262.91;5015113;28;20026;-58
2022/10/30 00:13:23;;;;;;;15.70;7.53;;;;;;;25.40;44.94;101263.72;5015202;28;20096;-57
2022/10/30 00:15:53;;;;;;;15.38;6.60;;;;;;;25.34;44.86;101269.78;5015256;28;20060;-57
2022/10/30 00:18:21;;;;;;;17.35;7.18;;;;;;;25.36;44.89;101275.06;5015183;28;20029;-58
2022/10/30 00:20:50;;;;;;;20.50;7.32;;;;;;;25.41;44.81;101286.47;5015271;28;20017;-52
2022/10/30 00:23:17;;;;;;;18.65;7.05;;;;;;;25.39;44.74;101283.00;5014967;28;20029;-58
2022/10/30 00:25:46;;;;;;;13.18;6.30;;;;;;;25.35;44.97;101273.28;5015178;28;20026;-59
2022/10/30 00:28:14;;;;;;;13.45;6.22;;;;;;;25.31;44.95;101256.63;5014987;28;20025;-59
2022/10/30 00:30:43;;;;;;;16.38;6.38;;;;;;;25.33;44.92;101251.38;5014739;28;20475;-57
2022/10/30 00:33:11;;;;;;;17.30;6.22;;;;;;;25.33;44.68;101233.88;5014663;28;20030;-58
2022/10/30 00:35:47;;;;;;;13.27;5.70;;;;;;;25.30;44.78;101233.88;5014792;28;20045;-58
2022/10/30 00:38:15;;;;;;;12.02;5.72;;;;;;;25.33;44.89;101233.00;5014861;28;20036;-58
2022/10/30 00:40:44;;;;;;;14.32;5.70;;;;;;;25.37;44.80;101228.66;5014696;28;20022;-55
2022/10/30 00:43:36;;;;;;;13.48;5.07;;;;;;;25.31;44.70;101213.72;5014159;28;20033;-57
2022/10/30 00:46:19;;;;;;;14.80;6.70;;;;;;;25.24;45.17;101209.25;5008103;28;20100;-58
2022/10/30 00:48:53;;;;;;;12.10;4.82;;;;;;;25.24;44.99;101207.53;5014602;28;20029;-58
2022/10/30 00:51:22;;;;;;;12.32;4.90;;;;;;;25.21;45.03;101202.22;4996457;28;20125;-57
2022/10/30 00:53:51;;;;;;;14.57;6.13;;;;;;;25.29;44.99;101207.56;5014402;28;20426;-58
2022/10/30 00:56:20;;;;;;;13.85;5.53;;;;;;;25.29;44.97;101208.47;5013308;28;20113;-58
2022/10/30 00:58:53;;;;;;;11.05;5.10;;;;;;;25.31;44.75;101201.50;5014721;28;20502;-58
2022/10/30 01:01:24;;;;;;;12.90;5.13;;;;;;;25.32;44.72;101192.72;5013928;28;20030;-57
2022/10/30 01:03:56;;;;;;;12.50;4.60;;;;;;;25.26;44.85;101195.28;5014239;28;20026;-58
2022/10/30 01:06:25;;;;;;;10.18;4.07;;;;;;;25.26;44.92;101197.91;4996857;28;20038;-58
2022/10/30 01:08:55;;;;;;;12.40;4.25;;;;;;;25.22;45.02;101201.38;5014331;28;20040;-56
2022/10/30 01:11:23;;;;;;;15.38;5.35;;;;;;;25.13;45.22;101207.38;5014519;28;20034;-57
2022/10/30 01:13:53;;;;;;;12.48;4.95;;;;;;;25.17;44.85;101214.44;5014327;28;20040;-57
2022/10/30 01:16:44;;;;;;;13.70;4.93;;;;;;;25.14;45.27;101211.78;4996916;28;20022;-57
2022/10/30 01:19:31;;;;;;;10.40;4.22;;;;;;;25.16;44.94;101214.41;4995124;28;20034;-57
2022/10/30 01:22:27;;;;;;;12.05;4.72;;;;;;;25.14;45.13;101210.91;5003689;28;20063;-56
2022/10/30 01:25:06;;;;;;;;;;;;;;;25.19;45.12;101185.56;5006435;28;20479;-57
2022/10/30 01:27:53;;;;;;;10.65;4.35;;;;;;;25.10;45.26;101188.09;4980382;28;20337;-53
2022/10/30 01:30:40;;;;;;;10.60;3.97;;;;;;;25.08;45.42;101179.31;5013640;28;20116;-44
2022/10/30 01:33:36;;;;;;;8.93;3.97;;;;;;;24.97;45.62;101180.09;5005833;28;20037;-46
2022/10/30 01:36:11;;;;;;;7.50;3.80;;;;;;;25.00;45.59;101190.59;5014004;28;20050;-58
2022/10/30 01:38:44;;;;;;;10.93;4.50;;;;;;;25.09;45.45;101192.47;4996131;28;20105;-57
2022/10/30 01:41:12;;;;;;;11.60;4.20;;;;;;;25.05;45.13;101189.78;4996437;28;20554;-58
2022/10/30 01:43:42;;;;;;;10.27;3.92;;;;;;;25.03;45.37;101200.28;5013448;28;20038;-55
2022/10/30 01:46:11;;;;;;;10.07;3.83;;;;;;;25.04;45.13;101199.41;5013548;28;20026;-57
2022/10/30 01:48:59;;;;;;;8.90;3.40;;;;;;;24.97;45.20;101200.19;5013356;28;20030;-58
2022/10/30 01:51:57;;;;;;;10.23;4.18;;;;;;;24.86;45.71;101194.81;5002315;28;20042;-57
2022/10/30 01:54:33;;;;;;;8.85;3.55;;;;;;;24.91;45.46;101189.59;4996708;28;20026;-58
2022/10/30 01:57:03;;;;;;;9.82;3.63;;;;;;;24.95;45.46;101200.19;4996275;28;20085;-57
2022/10/30 01:59:38;;;;;;;7.43;3.15;;;;;;;24.88;45.62;101199.22;5013651;28;20030;-57
2022/10/30 02:02:06;;;;;;;11.10;3.33;;;;;;;24.87;45.50;101200.09;4996048;28;20029;-55
2022/10/30 02:04:35;;;;;;;7.28;2.97;;;;;;;24.91;45.39;101201.00;5012362;28;20034;-58
2022/10/30 02:07:05;;;;;;;9.10;4.20;;;;;;;24.89;45.30;101205.34;5011751;28;20045;-58
2022/10/30 02:09:34;;;;;;;9.25;3.38;;;;;;;24.85;45.68;101199.19;5013205;28;20069;-58
2022/10/30 02:12:03;;;;;;;8.35;3.22;;;;;;;24.83;45.68;101200.00;5013209;28;20068;-56
2022/10/30 02:14:34;;;;;;;7.88;3.03;;;;;;;24.83;46.06;101197.38;5012912;28;20036;-57
2022/10/30 02:17:05;;;;;;;9.25;2.72;;;;;;;24.79;45.77;101188.59;5013244;28;20026;-58
2022/10/30 02:19:34;;;;;;;8.52;2.75;;;;;;;24.82;45.58;101179.91;4995977;28;20108;-58
2022/10/30 02:22:02;;;;;;;9.40;2.83;;;;;;;24.97;45.68;101214.22;5013145;28;20029;-58
2022/10/30 02:24:31;;;;;;;7.93;3.60;;;;;;;24.88;45.34;101209.72;5013082;28;20042;-57
2022/10/30 02:27:00;;;;;;;7.15;3.30;;;;;;;24.89;45.24;101210.59;5013267;28;20030;-59
2022/10/30 02:29:28;;;;;;;10.77;3.88;;;;;;;24.83;45.36;101189.50;5012921;28;20593;-58
2022/10/30 02:31:57;;;;;;;9.93;3.10;;;;;;;24.91;45.69;101207.97;5013106;28;20037;-58
2022/10/30 02:34:26;;;;;;;8.07;2.70;;;;;;;24.95;45.14;101197.56;5012875;28;20594;-58
2022/10/30 02:36:54;;;;;;;8.90;2.67;;;;;;;24.94;45.41;101203.66;5012903;28;20105;-58
2022/10/30 02:39:23;;;;;;;8.05;2.78;;;;;;;24.97;45.18;101206.34;4996304;28;20022;-58
2022/10/30 02:41:51;;;;;;;9.50;3.20;;;;;;;24.94;45.20;101201.03;4975986;28;20377;-59
2022/10/30 02:44:20;;;;;;;7.05;2.75;;;;;;;24.85;45.33;101175.56;4993180;28;20033;-58
2022/10/30 02:46:48;;;;;;;9.13;2.88;;;;;;;24.93;45.39;101195.75;4993516;28;20022;-58
2022/10/30 02:49:17;;;;;;;8.07;2.83;;;;;;;24.88;45.41;101206.19;4975929;28;20026;-58
2022/10/30 02:51:45;;;;;;;8.35;2.88;;;;;;;24.88;45.38;101198.34;4993123;28;20061;-57
2022/10/30 02:54:13;;;;;;;7.80;2.50;;;;;;;24.92;45.21;101199.25;4993032;28;20369;-58
2022/10/30 02:56:41;;;;;;;10.70;3.75;;;;;;;24.87;45.22;101197.47;4993236;28;20022;-58
2022/10/30 02:59:10;;;;;;;8.30;2.35;;;;;;;24.88;45.09;101208.81;4993266;28;20030;-58
2022/10/30 03:01:38;;;;;;;6.88;2.08;;;;;;;24.87;45.22;101207.97;4993448;28;20030;-58
2022/10/30 03:04:06;;;;;;;7.03;2.65;;;;;;;24.82;45.14;101200.91;4993137;28;20027;-58
2022/10/30 03:06:35;;;;;;;9.38;2.60;;;;;;;24.93;44.97;101216.75;4993266;28;20046;-57
2022/10/30 03:09:04;;;;;;;10.25;2.63;;;;;;;24.95;45.03;101223.81;4993584;28;20019;-56
2022/10/30 03:11:34;;;;;;;9.88;2.88;;;;;;;24.95;44.93;101233.41;4993171;28;20015;-55
2022/10/30 03:14:03;;;;;;;7.35;2.35;;;;;;;24.92;45.12;101230.72;4993232;28;20022;-57
2022/10/30 03:16:32;;;;;;;6.63;2.50;;;;;;;24.91;44.94;101227.25;4996367;28;20018;-58
2022/10/30 03:19:01;;;;;;;5.28;2.05;;;;;;;24.88;45.12;101219.31;4996790;28;20030;-56
2022/10/30 03:21:30;;;;;;;6.05;2.13;;;;;;;24.92;44.86;101207.13;4996071;28;20065;-57
2022/10/30 03:23:58;;;;;;;8.00;2.22;;;;;;;24.91;44.91;101200.09;4996394;28;20411;-58
2022/10/30 03:26:27;;;;;;;8.57;2.28;;;;;;;24.96;44.88;101198.44;4996714;28;20026;-57
2022/10/30 03:28:55;;;;;;;8.70;2.63;;;;;;;24.94;45.01;101201.03;4996641;28;20018;-57
2022/10/30 03:31:24;;;;;;;5.65;1.83;;;;;;;24.90;45.16;101198.38;4996483;28;20542;-53
2022/10/30 03:33:52;;;;;;;7.13;2.20;;;;;;;24.89;45.22;101207.97;4996623;28;20072;-58
2022/10/30 03:36:21;;;;;;;6.80;2.33;;;;;;;24.88;45.01;101203.56;4995965;28;20037;-57
2022/10/30 03:38:49;;;;;;;5.32;1.98;;;;;;;24.89;44.98;101197.47;4996355;28;20126;-58
2022/10/30 03:41:18;;;;;;;6.15;1.83;;;;;;;24.86;44.97;101181.69;4996329;28;20427;-58
2022/10/30 03:43:46;;;;;;;5.32;1.67;;;;;;;24.88;45.17;101185.22;4996226;28;20105;-58
2022/10/30 03:46:15;;;;;;;6.90;2.00;;;;;;;24.86;45.23;101189.56;4995849;28;20027;-58
2022/10/30 03:48:43;;;;;;;5.18;1.98;;;;;;;24.80;44.91;101187.75;4995832;28;20034;-58
2022/10/30 03:51:12;;;;;;;8.68;2.53;;;;;;;24.83;45.37;101185.16;4996274;28;20027;-57
2022/10/30 03:53:40;;;;;;;7.53;2.05;;;;;;;24.81;45.06;101191.25;4995103;28;20118;-56
2022/10/30 03:56:09;;;;;;;7.45;2.45;;;;;;;24.82;45.42;101193.03;4995503;28;20033;-57
2022/10/30 03:58:38;;;;;;;10.98;2.85;;;;;;;24.75;45.17;101186.78;4995946;28;20435;-58
2022/10/30 04:01:07;;;;;;;6.28;1.67;;;;;;;24.81;45.29;101184.25;4995944;28;20385;-58
2022/10/30 04:03:36;;;;;;;5.85;1.65;;;;;;;24.81;44.97;101181.63;4978408;28;20031;-58
2022/10/30 04:06:05;;;;;;;6.20;2.42;;;;;;;24.79;45.17;101193.84;4995733;28;20092;-58
2022/10/30 04:08:34;;;;;;;8.23;2.67;;;;;;;24.74;45.50;101185.03;4995929;28;20488;-57
2022/10/30 04:11:02;;;;;;;8.40;2.50;;;;;;;24.77;45.30;101177.19;4995469;28;20114;-57
2022/10/30 04:20:15;;;;;;;6.10;1.95;;;;;;;24.79;45.15;101198.22;4993873;28;20079;-58
2022/10/30 04:22:46;;;;;;;9.68;2.15;;;;;;;24.82;45.27;101211.38;4995174;28;20452;-57
2022/10/30 04:25:15;;;;;;;5.18;1.73;;;;;;;24.82;45.28;101206.16;4995811;28;20368;-58
2022/10/30 04:34:28;;;;;;;9.77;2.15;;;;;;;24.79;45.34;101217.47;4993591;28;20552;-57
2022/10/30 04:36:57;;;;;;;6.47;1.90;;;;;;;24.79;45.24;101208.72;4995225;28;20050;-58
2022/10/30 04:39:25;;;;;;;8.95;2.55;;;;;;;24.82;45.00;101209.63;4995379;28;20026;-58
2022/10/30 04:41:54;;;;;;;9.20;2.15;;;;;;;24.79;44.71;101198.22;4977757;28;20472;-58
2022/10/30 04:44:22;;;;;;;6.50;2.03;;;;;;;24.83;45.17;101200.91;4995129;28;20105;-58
2022/10/30 04:46:51;;;;;;;5.85;1.90;;;;;;;24.78;44.94;101197.31;4995202;28;20093;-58
2022/10/30 04:49:20;;;;;;;7.35;1.98;;;;;;;24.77;45.30;101195.56;4995213;28;20463;-58
2022/10/30 04:51:48;;;;;;;6.47;2.10;;;;;;;24.77;44.98;101190.31;4995256;28;20368;-58
2022/10/30 04:54:17;;;;;;;8.40;2.00;;;;;;;24.81;45.05;101191.25;4994833;28;20392;-58
2022/10/30 04:56:45;;;;;;;11.25;2.60;;;;;;;24.84;45.00;101186.03;4994277;28;20026;-59
2022/10/30 04:59:13;;;;;;;4.95;1.70;;;;;;;24.87;44.82;101191.31;4994922;28;20076;-57
2022/10/30 05:01:42;;;;;;;5.45;1.70;;;;;;;24.78;44.86;101199.09;4994838;28;20030;-58
2022/10/30 05:04:10;;;;;;;9.13;1.95;;;;;;;24.77;44.93;101192.06;4994825;28;20034;-58
2022/10/30 05:06:39;;;;;;;6.25;1.83;;;;;;;24.80;45.06;101194.75;4994593;28;20050;-58
2022/10/30 05:09:08;;;;;;;9.25;2.28;;;;;;;24.78;45.13;101197.31;4994641;28;20452;-58
2022/10/30 05:11:35;;;;;;;5.45;1.85;;;;;;;24.69;45.15;101181.44;4994908;28;20029;-57
2022/10/30 05:14:04;;;;;;;7.45;2.08;;;;;;;24.72;45.31;101195.50;4977299;28;20058;-57
2022/10/30 05:16:31;;;;;;;5.63;1.60;;;;;;;24.73;44.89;101199.91;4994797;28;20101;-54
2022/10/30 05:19:00;;;;;;;5.93;1.52;;;;;;;24.72;44.85;101197.25;4994539;28;20468;-57
2022/10/30 05:21:28;;;;;;;6.75;1.65;;;;;;;24.68;45.31;101208.53;4994650;28;20145;-57
2022/10/30 05:23:55;;;;;;;10.63;2.28;;;;;;;24.70;44.83;101205.09;4994226;28;20084;-58
2022/10/30 05:26:24;;;;;;;5.05;1.40;;;;;;;24.68;45.32;101205.91;4994576;28;20027;-57
2022/10/30 05:28:51;;;;;;;6.32;2.28;;;;;;;24.70;44.95;101212.97;4994208;28;20081;-45
2022/10/30 05:31:19;;;;;;;3.97;1.58;;;;;;;24.74;44.83;101203.38;4994418;28;20036;-56
2022/10/30 05:33:48;;;;;;;7.40;1.70;;;;;;;24.67;45.22;101199.78;4994641;28;20069;-58
2022/10/30 05:36:17;;;;;;;9.00;2.42;;;;;;;24.67;45.20;101199.78;4994144;28;20030;-57
2022/10/30 05:38:45;;;;;;;6.63;1.55;;;;;;;24.70;45.16;101210.34;4994309;28;20026;-58
2022/10/30 05:41:14;;;;;;;5.55;1.35;;;;;;;24.66;45.11;101192.75;4992906;28;20026;-56
2022/10/30 05:43:42;;;;;;;4.75;1.50;;;;;;;24.68;44.79;101205.91;4994066;28;20034;-57
2022/10/30 05:46:10;;;;;;;10.82;2.92;;;;;;;24.62;44.99;101198.84;4994109;28;20034;-50
2022/10/30 05:48:38;;;;;;;8.25;1.95;;;;;;;24.63;44.91;101197.09;4993936;28;20400;-58
2022/10/30 05:51:07;;;;;;;6.55;1.95;;;;;;;24.62;45.13;101198.84;4994090;28;20034;-57
2022/10/30 05:53:35;;;;;;;5.03;2.10;;;;;;;24.64;45.20;101206.72;4994032;28;20030;-57
2022/10/30 05:56:04;;;;;;;3.70;1.10;;;;;;;24.63;44.81;101213.72;4993649;28;20022;-56
2022/10/30 05:58:33;;;;;;;6.95;1.67;;;;;;;24.60;45.09;101213.69;4993111;28;20040;-57
2022/10/30 06:01:04;;;;;;;5.50;1.60;;;;;;;24.57;45.31;101213.63;4993580;28;20026;-58
2022/10/30 06:03:33;;;;;;;6.13;1.70;;;;;;;24.62;45.30;101213.69;4993922;28;20030;-57
2022/10/30 06:06:01;;;;;;;6.88;1.52;;;;;;;24.56;45.39;101201.38;4993569;28;20432;-56
2022/10/30 06:08:30;;;;;;;5.22;1.67;;;;;;;24.58;45.06;101207.53;4993843;28;20034;-57
2022/10/30 06:10:59;;;;;;;5.43;1.38;;;;;;;24.54;44.91;101205.72;4993461;28;20113;-56
2022/10/30 06:13:27;;;;;;;7.10;1.80;;;;;;;24.56;44.94;101201.38;4993655;28;20038;-58
2022/10/30 06:15:57;;;;;;;4.40;1.50;;;;;;;24.52;45.27;101204.81;4993662;28;20058;-59
2022/10/30 06:18:25;;;;;;;5.20;1.15;;;;;;;24.55;45.31;101211.00;4993627;28;20074;-57
2022/10/30 06:20:55;;;;;;;5.60;1.48;;;;;;;24.51;45.07;101197.78;4993311;28;20103;-58
2022/10/30 06:23:24;;;;;;;5.20;1.63;;;;;;;24.50;44.98;101204.78;4976177;28;20049;-59
2022/10/30 06:25:52;;;;;;;5.72;1.73;;;;;;;24.50;45.39;101196.91;4993573;28;20062;-59
2022/10/30 06:28:21;;;;;;;6.53;1.35;;;;;;;24.52;45.01;101200.44;4993755;28;20480;-58
2022/10/30 06:30:49;;;;;;;6.18;1.67;;;;;;;24.47;45.32;101196.88;4993279;28;20034;-57
2022/10/30 06:33:18;;;;;;;5.03;1.42;;;;;;;24.50;45.05;101196.03;4993250;28;20037;-57
2022/10/30 06:35:49;;;;;;;4.13;1.38;;;;;;;24.47;45.33;101194.25;4993698;28;20035;-58
2022/10/30 06:38:17;;;;;;;4.68;1.33;;;;;;;24.55;44.80;101202.22;4993405;28;20086;-58
2022/10/30 06:40:46;;;;;;;6.03;1.80;;;;;;;24.45;45.35;101190.72;4993546;28;20428;-58
2022/10/30 06:43:14;;;;;;;7.75;1.70;;;;;;;24.55;45.01;101208.38;4993244;28;20446;-58
2022/10/30 06:45:43;;;;;;;4.50;1.05;;;;;;;24.48;45.23;101198.63;4993223;28;20030;-58
2022/10/30 06:48:11;;;;;;;6.00;1.60;;;;;;;24.55;45.11;101213.63;4993499;28;20038;-58
2022/10/30 06:50:40;;;;;;;7.03;1.88;;;;;;;24.49;45.29;101210.88;4995366;28;20023;-58
2022/10/30 06:53:09;;;;;;;4.50;1.35;;;;;;;24.49;44.97;101205.66;4997309;28;20030;-58
2022/10/30 06:55:38;;;;;;;5.85;1.80;;;;;;;24.51;45.28;101224.00;4997158;28;20121;-58
2022/10/30 06:58:06;;;;;;;5.25;1.20;;;;;;;24.48;45.10;101224.84;4996757;28;20034;-59
2022/10/30 07:00:35;;;;;;;4.50;1.38;;;;;;;24.49;45.08;101220.50;4997217;28;20030;-58
2022/10/30 07:03:03;;;;;;;6.18;1.45;;;;;;;24.52;45.12;101225.78;4997337;28;20026;-58
2022/10/30 07:05:32;;;;;;;3.03;1.10;;;;;;;24.47;45.00;101209.13;4979285;28;20038;-58
2022/10/30 07:08:02;;;;;;;4.40;1.17;;;;;;;24.51;45.06;101229.25;4996938;28;20404;-58
2022/10/30 07:10:30;;;;;;;5.47;1.38;;;;;;;24.50;45.24;101212.66;4997144;28;20081;-58
2022/10/30 07:13:17;;;;;;;5.15;1.42;;;;;;;24.51;45.09;101224.00;4996737;28;20483;-57
2022/10/30 07:15:45;;;;;;;4.10;1.23;;;;;;;24.55;44.89;101229.34;4996497;28;20041;-58
2022/10/30 07:18:14;;;;;;;6.65;1.25;;;;;;;24.47;45.14;101216.97;4996498;28;20060;-57
2022/10/30 07:20:42;;;;;;;3.75;1.08;;;;;;;24.51;44.74;101231.88;4996144;28;20088;-57
2022/10/30 07:23:11;;;;;;;3.20;0.98;;;;;;;24.48;44.92;101239.72;4996666;28;20026;-57
2022/10/30 07:25:39;;;;;;;5.63;1.50;;;;;;;24.50;44.80;101237.97;4996508;28;20424;-57
2022/10/30 07:28:08;;;;;;;4.57;1.52;;;;;;;24.48;44.96;101232.72;4996409;28;20415;-54
2022/10/30 07:30:36;;;;;;;4.97;1.20;;;;;;;24.55;45.20;101242.47;4996484;28;20077;-57
2022/10/30 07:33:06;;;;;;;5.78;1.63;;;;;;;24.60;45.15;101249.50;4996529;28;20076;-56
2022/10/30 07:35:35;;;;;;;4.93;1.40;;;;;;;24.47;44.84;101235.34;4994748;28;20065;-57
2022/10/30 07:38:04;;;;;;;4.90;1.38;;;;;;;24.47;45.29;101244.06;4995696;28;20403;-48
2022/10/30 07:40:33;;;;;;;10.32;1.23;;;;;;;24.48;45.14;101248.47;4995875;28;20028;-57
2022/10/30 07:43:02;;;;;;;4.63;1.08;;;;;;;24.47;45.27;101251.94;4996270;28;20030;-56
2022/10/30 07:45:31;;;;;;;5.20;1.60;;;;;;;24.50;45.23;101259.88;4996525;28;20038;-55
2022/10/30 07:48:00;;;;;;;6.43;1.77;;;;;;;24.55;44.74;101254.69;4996335;28;20435;-57
2022/10/30 07:50:29;;;;;;;4.13;1.27;;;;;;;24.53;45.03;101257.28;4995807;28;20030;-57
2022/10/30 07:52:57;;;;;;;6.75;1.30;;;;;;;24.53;45.08;101264.25;4995791;28;20101;-57
2022/10/30 07:55:26;;;;;;;2.67;0.80;;;;;;;24.63;44.76;101268.81;4995885;28;20096;-57
2022/10/30 07:57:55;;;;;;;5.00;1.58;;;;;;;24.67;44.63;101262.72;4996243;28;20053;-58
2022/10/30 08:00:23;;;;;;;3.50;1.42;;;;;;;24.70;44.63;101270.69;4996054;28;20430;-58
2022/10/30 08:02:51;;;;;;;4.70;1.45;;;;;;;24.69;44.73;101276.75;4991721;28;20032;-58
2022/10/30 08:05:19;;;;;;;4.55;1.17;;;;;;;24.70;44.85;101280.31;4981694;28;20039;-58
2022/10/30 08:07:48;;;;;;;6.45;1.58;;;;;;;24.69;44.58;101274.13;4976821;28;20078;-58
2022/10/30 08:10:16;;;;;;;5.10;1.25;;;;;;;24.61;44.94;101283.63;4975988;28;20031;-57
2022/10/30 08:12:46;;;;;;;4.43;1.15;;;;;;;24.67;44.99;101288.09;4976550;28;20369;-58
2022/10/30 08:15:15;;;;;;;8.65;1.65;;;;;;;24.68;45.18;101292.47;4994016;28;20430;-55
2022/10/30 08:17:45;;;;;;;5.75;1.20;;;;;;;24.65;45.22;101293.31;4995710;28;20109;-57
2022/10/30 08:20:15;;;;;;;6.38;1.45;;;;;;;24.68;45.08;101293.34;4995648;28;20463;-57
2022/10/30 08:22:55;;;;;;;5.68;1.48;;;;;;;24.67;45.01;101296.81;4995815;28;20501;-58
2022/10/30 08:25:26;;;;;;;7.65;1.35;;;;;;;24.70;45.05;101293.44;4995562;28;20062;-57
2022/10/30 08:27:57;;;;;;;5.65;1.20;;;;;;;24.72;45.24;101292.56;4995677;28;20056;-58
2022/10/30 08:30:28;;;;;;;4.95;1.63;;;;;;;24.71;45.22;101308.31;4995683;28;20097;-57
2022/10/30 08:32:58;;;;;;;4.55;1.52;;;;;;;24.69;45.39;101307.38;4995735;28;20053;-58
2022/10/30 08:35:25;;;;;;;7.60;2.10;;;;;;;24.70;45.61;101310.03;4995288;28;20022;-58
2022/10/30 08:37:58;;;;;;;6.85;2.53;;;;;;;24.75;45.62;101307.47;5010447;28;20026;-58
2022/10/30 08:40:28;;;;;;;7.53;2.88;;;;;;;24.61;45.71;101288.88;4995408;28;20088;-58
2022/10/30 08:42:57;;;;;;;6.57;2.60;;;;;;;24.81;45.57;101311.97;4995829;28;20057;-58
2022/10/30 08:45:26;;;;;;;7.60;2.30;;;;;;;24.77;45.64;101311.00;4995407;28;20035;-56
2022/10/30 08:47:59;;;;;;;7.35;3.28;;;;;;;24.73;45.76;101309.22;4995231;28;20081;-58
2022/10/30 08:50:27;;;;;;;7.10;3.05;;;;;;;24.82;45.81;101318.97;4995361;28;20030;-59
2022/10/30 08:52:55;;;;;;;13.05;3.22;;;;;;;24.77;45.73;101325.88;4995190;28;20034;-58
2022/10/30 08:55:24;;;;;;;8.75;3.50;;;;;;;24.83;45.73;101326.84;4995118;28;20150;-59
2022/10/30 08:57:52;;;;;;;6.97;3.25;;;;;;;24.84;46.04;101325.09;4995268;28;20463;-58
2022/10/30 09:00:21;;;;;;;8.93;3.53;;;;;;;24.85;45.71;101335.63;4977673;28;20411;-58
2022/10/30 09:02:49;;;;;;;9.20;3.90;;;;;;;24.90;45.75;101329.59;4995097;28;20030;-58
2022/10/30 09:05:17;;;;;;;6.25;2.63;;;;;;;24.87;45.51;101326.03;4994940;28;20038;-58
2022/10/30 09:07:45;;;;;;;8.65;2.72;;;;;;;24.85;45.79;101335.63;4994822;28;20070;-58
2022/10/30 09:10:14;;;;;;;7.68;2.38;;;;;;;24.79;46.00;101330.28;4977485;28;20022;-58
2022/10/30 09:12:43;;;;;;;9.98;3.47;;;;;;;24.84;46.05;101335.59;4994319;28;20081;-57
2022/10/30 09:15:11;;;;;;;8.52;3.13;;;;;;;24.79;46.01;101335.53;4994043;28;20112;-57
2022/10/30 09:17:40;;;;;;;8.38;3.45;;;;;;;24.85;46.04;101335.63;4994798;28;20018;-57
2022/10/30 09:20:09;;;;;;;10.23;3.72;;;;;;;24.85;45.95;101342.59;5009920;28;20081;-57
2022/10/30 09:22:41;;;;;;;9.88;3.35;;;;;;;24.82;45.84;101337.34;4994644;28;20022;-59
2022/10/30 09:25:09;;;;;;;10.38;2.42;;;;;;;24.84;45.71;101339.13;4961187;28;20030;-57
2022/10/30 09:27:39;;;;;;;9.40;3.13;;;;;;;24.82;45.64;101339.97;4994602;28;20062;-57
2022/10/30 09:30:08;;;;;;;9.50;2.83;;;;;;;24.77;45.99;101337.25;4993014;28;20034;-57
2022/10/30 09:32:37;;;;;;;11.80;2.83;;;;;;;24.85;46.00;101339.97;4994693;28;20118;-57
2022/10/30 09:35:05;;;;;;;7.20;2.72;;;;;;;24.84;45.84;101339.13;4994368;28;20038;-57
2022/10/30 09:37:36;;;;;;;12.02;3.20;;;;;;;24.89;45.91;101344.44;4994829;28;20022;-57
2022/10/30 09:40:05;;;;;;;8.45;2.25;;;;;;;24.83;45.88;101332.09;4994282;28;20034;-57
2022/10/30 09:42:53;;;;;;;7.25;2.33;;;;;;;24.86;45.99;101344.38;4994127;28;20050;-56
2022/10/30 09:45:41;;;;;;;8.18;2.60;;;;;;;24.86;45.68;101347.91;4994010;28;20030;-57
2022/10/30 09:48:40;;;;;;;8.43;2.50;;;;;;;24.83;45.91;101347.84;4993885;28;20066;-57
2022/10/30 09:51:18;;;;;;;7.32;1.80;;;;;;;24.75;45.63;101327.59;4976386;28;20096;-58
2022/10/30 09:53:57;;;;;;;6.60;2.00;;;;;;;24.91;45.55;101337.47;4992657;28;20113;-52
2022/10/30 09:56:31;;;;;;;5.32;1.73;;;;;;;24.92;45.60;101339.22;4996240;28;20057;-46
2022/10/30 09:59:01;;;;;;;;;;;;;;;24.94;45.52;101334.88;4988051;28;20027;-45
2022/10/30 10:01:47;;;;;;;10.60;2.33;;;;;;;24.93;45.65;101335.75;4993113;28;19964;-56
2022/10/30 10:04:38;;;;;;;5.45;1.77;;;;;;;24.93;45.58;101338.38;4976354;28;20032;-55
2022/10/30 10:07:23;;;;;;;9.05;1.85;;;;;;;24.88;45.77;101330.44;4988502;28;20049;-55
2022/10/30 10:09:54;;;;;;;4.80;1.30;;;;;;;24.91;45.55;101337.47;4976147;28;20027;-53
2022/10/30 10:12:29;;;;;;;4.05;1.35;;;;;;;24.95;45.68;101341.91;4975783;28;20041;-55
2022/10/30 10:14:57;;;;;;;7.93;2.05;;;;;;;24.98;45.31;101339.34;4993652;28;20088;-56
2022/10/30 10:17:32;;;;;;;6.20;1.67;;;;;;;24.98;45.68;101347.22;4993300;28;20053;-56
2022/10/30 10:20:01;;;;;;;6.22;1.88;;;;;;;24.97;45.58;101345.44;4993032;28;20028;-57
2022/10/30 10:22:49;;;;;;;7.07;1.60;;;;;;;24.92;45.54;101352.34;4993008;28;20030;-57
2022/10/30 10:25:18;;;;;;;6.85;1.58;;;;;;;24.98;45.34;101347.22;4992427;28;20411;-57
2022/10/30 10:28:13;;;;;;;8.32;2.22;;;;;;;24.97;45.56;101349.78;4993008;28;20113;-57
2022/10/30 10:31:19;;;;;;;6.53;1.73;;;;;;;24.96;45.24;101354.16;4992391;28;20085;-57
2022/10/30 10:34:26;;;;;;;7.30;1.50;;;;;;;24.97;45.27;101366.44;4986225;28;20742;-54
2022/10/30 10:36:57;;;;;;;5.95;1.70;;;;;;;25.02;45.14;101362.13;4992716;28;20042;-55
2022/10/30 10:40:04;;;;;;;4.78;1.35;;;;;;;25.01;45.34;101368.22;4992936;28;20499;-58
2022/10/30 10:42:59;;;;;;;6.75;1.50;;;;;;;25.01;45.23;101364.72;4987680;28;20038;-56
2022/10/30 10:45:29;;;;;;;4.43;1.27;;;;;;;24.96;45.41;101364.66;4986173;28;20096;-58
2022/10/30 10:48:26;;;;;;;5.20;1.30;;;;;;;24.88;45.68;101376.78;4976507;28;20030;-58
2022/10/30 10:51:05;;;;;;;5.10;1.55;;;;;;;25.00;45.25;101381.34;4989804;28;20034;-58
2022/10/30 10:53:38;;;;;;;5.22;1.95;;;;;;;24.99;45.35;101377.81;4983962;28;20030;-56
2022/10/30 10:56:06;;;;;;;5.47;1.77;;;;;;;24.99;45.17;101369.94;4993997;28;20033;-53
2022/10/30 10:58:50;;;;;;;6.00;1.60;;;;;;;24.94;45.42;101376.88;4978171;28;20471;-53
2022/10/30 11:01:20;;;;;;;3.30;1.13;;;;;;;25.06;45.15;101380.53;4998918;28;20030;-58
2022/10/30 11:03:54;;;;;;;4.40;1.30;;;;;;;25.03;45.40;101373.50;4990617;28;20164;-58
2022/10/30 11:06:24;;;;;;;3.33;1.10;;;;;;;25.05;45.47;101378.78;5010941;28;20410;-59
2022/10/30 11:08:54;;;;;;;6.18;1.40;;;;;;;25.02;45.17;101375.25;5010844;28;20041;-58
2022/10/30 11:11:23;;;;;;;6.90;1.85;;;;;;;24.99;45.51;101364.69;4975124;28;20027;-58
2022/10/30 11:13:55;;;;;;;4.00;1.40;;;;;;;25.13;45.20;101383.28;4995667;28;20407;-57
2022/10/30 11:16:47;;;;;;;8.98;1.83;;;;;;;25.09;45.29;101380.59;4997579;28;20459;-55
2022/10/30 11:19:16;;;;;;;6.93;1.45;;;;;;;25.08;45.24;101377.06;4982750;28;20073;-58
2022/10/30 11:21:47;;;;;;;7.60;1.75;;;;;;;25.08;45.58;101374.44;4986016;28;20025;-54
2022/10/30 11:24:35;;;;;;;8.35;1.60;;;;;;;25.08;45.41;101384.94;4978308;28;20030;-57
2022/10/30 11:27:24;;;;;;;5.10;1.83;;;;;;;24.99;45.79;101380.44;4996068;28;20026;-57
2022/10/30 11:29:59;;;;;;;6.72;1.52;;;;;;;24.97;45.74;101386.53;4999011;28;20409;-58
2022/10/30 11:32:28;;;;;;;9.15;1.90;;;;;;;24.97;45.78;101383.91;4995024;28;20073;-57
2022/10/30 11:35:17;;;;;;;8.77;1.98;;;;;;;25.02;45.66;101393.63;4994991;28;20061;-57
2022/10/30 11:37:45;;;;;;;6.95;1.80;;;;;;;25.01;45.78;101383.97;4999424;28;20163;-57
2022/10/30 11:40:13;;;;;;;7.97;2.05;;;;;;;25.08;45.48;101399.81;5004396;28;20404;-58
2022/10/30 11:42:52;;;;;;;8.45;2.08;;;;;;;25.04;45.57;101396.28;5003631;28;20030;-57
2022/10/30 11:45:29;;;;;;;7.85;1.83;;;;;;;25.04;45.53;101398.91;5005259;28;20038;-51
2022/10/30 11:47:59;;;;;;;9.35;1.92;;;;;;;25.11;45.83;101400.75;4985887;28;20037;-58
2022/10/30 11:50:29;;;;;;;8.90;2.42;;;;;;;25.08;45.51;101402.44;5007081;28;20077;-57
2022/10/30 11:53:01;;;;;;;7.93;2.33;;;;;;;25.08;45.50;101405.94;5008330;28;20084;-59
2022/10/30 11:55:48;;;;;;;8.98;1.90;;;;;;;25.08;45.59;101391.94;5008539;28;20022;-58
2022/10/30 11:58:33;;;;;;;7.65;1.88;;;;;;;25.09;45.56;101406.84;5004880;28;20038;-58